Data for 06/28/2016

Time Sea-Level Adjusted Pressure Absolute Pressure Temperature Relative Humidity Dew Point   
(mb) (inHg) (mb) (inHg) (C) (F) (%) (C) (F)
00:05 1025 30.27 854 25.22 20.5 68.9 35 4.7 40.5
00:10 1025 30.27 854 25.22 20.4 68.8 36 4.9 40.8
00:15 1025 30.27 854 25.22 20.3 68.6 36 5 40.9
00:20 1025 30.27 854 25.22 20.3 68.5 36 4.8 40.6
00:25 1025 30.27 854 25.22 20.2 68.4 36 4.9 40.9
00:30 1025 30.27 854 25.22 20.1 68.2 37 4.9 40.9
00:35 1025 30.27 854 25.22 20.1 68.1 37 4.9 40.9
00:40 1025 30.27 854 25.22 20 67.9 37 5 41
00:45 1025 30.27 854 25.22 19.9 67.9 37 5 41
00:50 1025 30.27 854 25.22 20 67.9 37 5 41
00:55 1025 30.27 854 25.22 19.9 67.9 37 5.1 41.3
01:00 1024 30.24 854 25.22 19.9 67.8 38 5.2 41.3
01:05 1024 30.24 854 25.22 19.8 67.6 38 5.4 41.7
01:10 1024 30.24 854 25.22 19.6 67.2 39 5.3 41.6
01:15 1024 30.24 854 25.22 19.5 67.1 39 5.4 41.8
01:20 1024 30.24 854 25.22 19.3 66.8 39 5.3 41.5
01:25 1024 30.24 854 25.22 19.4 66.8 39 5.4 41.7
01:30 1024 30.24 854 25.22 19.3 66.7 40 5.3 41.6
01:35 1024 30.24 854 25.22 19.2 66.5 40 5.5 42
01:40 1024 30.24 854 25.22 19.1 66.3 40 5.3 41.6
01:45 1024 30.24 853 25.19 19.1 66.3 40 5.3 41.5
01:50 1024 30.24 853 25.19 19.1 66.4 40 5.4 41.7
01:55 1024 30.24 853 25.19 18.9 66.1 40 5.3 41.5
02:00 1024 30.24 853 25.19 19 66.2 40 5.2 41.4
02:05 1024 30.24 853 25.19 19.1 66.3 39 5.1 41.2
02:10 1024 30.24 853 25.19 19.1 66.4 40 5.3 41.6
02:15 1024 30.24 853 25.19 18.9 66.1 40 5.2 41.4
02:20 1024 30.24 853 25.19 18.9 65.9 40 5.2 41.3
02:25 1024 30.24 853 25.19 19 66.1 40 5 41.1
02:30 1024 30.24 853 25.19 18.9 66.1 40 5.1 41.2
02:35 1024 30.24 853 25.19 18.9 66 40 5 41.1
02:40 1024 30.24 853 25.19 18.9 66 39 4.9 40.9
02:45 1024 30.24 853 25.19 18.9 66 40 5 41.1
02:50 1024 30.24 853 25.19 18.8 65.8 40 5.2 41.3
02:55 1024 30.24 853 25.19 18.6 65.6 40 5 41
03:00 1024 30.24 853 25.19 18.6 65.5 41 5.1 41.2
03:05 1024 30.24 853 25.19 18.6 65.4 41 5.1 41.2
03:10 1024 30.24 853 25.19 18.5 65.3 41 5 41
03:15 1024 30.24 853 25.19 18.5 65.2 41 5.1 41.2
03:20 1024 30.24 853 25.19 18.5 65.2 40 4.9 40.8
03:25 1023 30.21 853 25.19 18.5 65.3 41 5 41.1
03:30 1023 30.21 853 25.19 18.4 65.1 41 5.1 41.1
03:35 1023 30.21 853 25.19 18.2 64.8 42 5.2 41.3
03:40 1023 30.21 853 25.19 18 64.3 42 5 41.1
03:45 1023 30.21 852 25.16 18 64.4 42 5 41
03:50 1023 30.21 853 25.19 17.9 64.3 43 5.1 41.2
03:55 1023 30.21 853 25.19 17.9 64.3 42 4.9 40.8
04:00 1024 30.24 853 25.19 18.1 64.6 41 4.8 40.7
04:05 1023 30.21 852 25.16 18.2 64.8 41 4.7 40.5
04:10 1023 30.21 852 25.16 18.2 64.8 41 4.8 40.6
04:15 1023 30.21 852 25.16 18.2 64.7 41 4.8 40.6
04:20 1023 30.21 852 25.16 18.1 64.6 41 4.7 40.4
04:25 1023 30.21 852 25.16 18.2 64.7 40 4.7 40.4
04:30 1023 30.21 852 25.16 18.2 64.8 40 4.6 40.4
04:35 1023 30.21 852 25.16 18.2 64.7 41 4.8 40.7
04:40 1023 30.21 852 25.16 18 64.4 41 4.8 40.7
04:45 1023 30.21 852 25.16 17.9 64.1 42 5 41
04:50 1023 30.21 852 25.16 17.7 63.9 42 4.9 40.8
04:55 1023 30.21 852 25.16 17.7 63.9 42 4.9 40.8
05:00 1023 30.21 852 25.16 17.7 63.9 42 4.7 40.5
05:05 1023 30.21 852 25.16 17.9 64.1 41 4.5 40.1
05:10 1023 30.21 852 25.16 18 64.5 41 4.6 40.3
05:15 1023 30.21 853 25.19 18.1 64.5 41 4.6 40.4
05:20 1024 30.24 853 25.19 18 64.5 42 4.9 40.9
05:25 1024 30.24 853 25.19 17.8 64 43 5.1 41.1
05:30 1023 30.21 852 25.16 17.7 63.8 42 4.9 40.8
05:35 1023 30.21 852 25.16 17.6 63.7 43 5.1 41.1
05:40 1023 30.21 852 25.16 17.5 63.6 43 4.9 40.8
05:45 1023 30.21 852 25.16 17.8 64 42 4.6 40.4
05:50 1024 30.24 853 25.19 18 64.4 42 5.2 41.4
05:55 1024 30.24 854 25.22 18 64.3 45 5.9 42.6
06:00 1024 30.24 854 25.22 17.5 63.4 42 4.6 40.4
06:05 1024 30.24 853 25.19 17.8 64 42 4.8 40.6
06:10 1024 30.24 853 25.19 17.8 64.1 43 5.3 41.6
06:15 1024 30.24 853 25.19 17.5 63.6 45 5.5 41.9
06:20 1024 30.24 853 25.19 17.6 63.6 45 5.5 42
06:25 1024 30.24 853 25.19 17.8 64 44 5.6 42.1
06:30 1024 30.24 853 25.19 18.2 64.7 43 5.5 41.9
06:35 1024 30.24 853 25.19 18.2 64.8 45 6.1 43.1
06:40 1025 30.27 854 25.22 18.2 64.7 44 6 42.7
06:45 1025 30.27 854 25.22 18.2 64.8 44 5.8 42.4
06:50 1025 30.27 854 25.22 18.2 64.8 46 6.5 43.8
06:55 1024 30.24 853 25.19 18 64.4 48 7.1 44.7
07:00 1024 30.24 853 25.19 17.5 63.6 47 6.2 43.1
07:05 1024 30.24 854 25.22 17.4 63.3 47 6.1 42.9
07:10 1025 30.27 854 25.22 17.3 63.2 46 5.8 42.4
07:15 1025 30.27 854 25.22 17.7 63.8 47 6.3 43.3
07:20 1026 30.3 855 25.25 18 64.4 47 6.8 44.2
07:25 1025 30.27 854 25.22 17.8 64 49 6.9 44.5
07:30 1024 30.24 853 25.19 17.4 63.3 51 7.1 44.8
07:35 1024 30.24 853 25.19 17.2 62.9 52 7.3 45.1
07:40 1024 30.24 854 25.22 17.1 62.8 52 7.2 45
07:45 1025 30.27 854 25.22 17.3 63.1 50 7 44.6
07:50 1025 30.27 854 25.22 17.8 64 47 6.5 43.8
07:55 1025 30.27 854 25.22 18.6 65.5 44 6.2 43.1
08:00 1025 30.27 854 25.22 18.9 66 45 7 44.6
08:05 1025 30.27 854 25.22 19 66.2 45 6.8 44.2
08:10 1025 30.27 855 25.25 19.9 67.8 40 6.1 42.9
08:15 1025 30.27 855 25.25 20.2 68.4 40 6.4 43.5
08:20 1025 30.27 855 25.25 20 68 42 6.7 44.1
08:25 1026 30.3 855 25.25 19.6 67.3 47 8 46.4
08:30 1025 30.27 854 25.22 18.9 66 48 7.9 46.2
08:35 1025 30.27 854 25.22 18.4 65.2 49 7.6 45.6
08:40 1025 30.27 854 25.22 18.4 65.1 48 7.4 45.3
08:45 1025 30.27 854 25.22 18.4 65.2 50 7.8 46.1
08:50 1025 30.27 855 25.25 18.9 66 46 7.2 44.9
08:55 1025 30.27 854 25.22 20 67.9 42 6.8 44.3
09:00 1025 30.27 854 25.22 20.7 69.2 40 6.9 44.4
09:05 1025 30.27 854 25.22 20.7 69.3 39 6.5 43.7
09:10 1025 30.27 854 25.22 21.7 71.1 37 6.7 44.1
09:15 1025 30.27 855 25.25 22.2 71.9 37 6.8 44.2
09:20 1025 30.27 855 25.25 22 71.7 41 8.3 46.9
09:25 1025 30.27 854 25.22 21.4 70.5 41 7.8 46.1
09:30 1025 30.27 854 25.22 21.1 69.9 39 6.8 44.3
09:35 1025 30.27 855 25.25 20.6 69 39 6.3 43.3
09:40 1025 30.27 854 25.22 20.9 69.6 38 6.3 43.4
09:45 1025 30.27 854 25.22 21.3 70.3 39 6.8 44.2
09:50 1025 30.27 854 25.22 21 69.7 40 6.9 44.5
09:55 1025 30.27 854 25.22 21.7 71 38 7 44.5
10:00 1025 30.27 854 25.22 22.1 71.8 36 6.7 44
10:05 1025 30.27 854 25.22 21.8 71.3 36 6.3 43.4
10:10 1025 30.27 854 25.22 22.6 72.6 33 5.8 42.4
10:15 1025 30.27 854 25.22 23.1 73.5 34 6.5 43.7
10:20 1025 30.27 854 25.22 22.9 73.2 32 5.4 41.7
10:25 1025 30.27 854 25.22 23 73.3 33 5.8 42.5
10:30 1025 30.27 854 25.22 23.3 74 32 5.9 42.7
10:35 1025 30.27 854 25.22 23.5 74.3 31 5.7 42.2
10:40 1025 30.27 854 25.22 23.5 74.4 32 6.2 43.1
10:45 1025 30.27 854 25.22 23.5 74.4 31 5.8 42.4
10:50 1025 30.27 854 25.22 23.7 74.6 32 6.1 43
10:55 1025 30.27 854 25.22 23.7 74.6 31 5.9 42.6
11:00 1025 30.27 854 25.22 24 75.2 29 5.3 41.5
11:05 1025 30.27 854 25.22 24 75.2 30 5.7 42.2
11:10 1025 30.27 854 25.22 24 75.2 30 5.7 42.3
11:15 1025 30.27 854 25.22 24.8 76.6 28 5.4 41.7
11:20 1025 30.27 854 25.22 25.4 77.7 27 5.4 41.8
11:25 1024 30.24 854 25.22 25.8 78.4 25 4.7 40.5
11:30 1024 30.24 854 25.22 26.3 79.3 26 5.4 41.6
11:35 1024 30.24 854 25.22 25.8 78.4 27 5.6 42.1
11:40 1024 30.24 854 25.22 26 78.7 25 4.9 40.8
11:45 1024 30.24 853 25.19 25.8 78.5 26 4.9 40.8
11:50 1024 30.24 853 25.19 25.9 78.6 25 4.6 40.2
11:55 1024 30.24 853 25.19 26.6 79.9 24 4.4 39.9
12:00 1024 30.24 853 25.19 27.1 80.7 24 4.9 40.7
12:05 1024 30.24 853 25.19 27.2 80.9 24 5.3 41.5
12:10 1024 30.24 853 25.19 27.5 81.6 23 5.2 41.3
12:15 1024 30.24 853 25.19 27.7 81.9 22 4.6 40.4
12:20 1024 30.24 853 25.19 27.7 81.8 22 4.6 40.4
12:25 1024 30.24 853 25.19 27.8 82 22 4.6 40.3
12:30 1024 30.24 853 25.19 27.9 82.1 22 4.5 40.1
12:35 1024 30.24 853 25.19 28.6 83.5 22 5.1 41.2
12:40 1024 30.24 853 25.19 28.5 83.3 22 5.1 41.2
12:45 1024 30.24 853 25.19 28.7 83.6 22 5 41.1
12:50 1024 30.24 853 25.19 29.4 84.9 20 4.1 39.4
12:55 1024 30.24 853 25.19 29.4 85 20 4.3 39.7
13:00 1024 30.24 853 25.19 28.3 83 21 4.1 39.4
13:05 1024 30.24 853 25.19 28 82.4 21 3.8 38.8
13:10 1023 30.21 853 25.19 29.3 84.7 19 3.8 38.9
13:15 1023 30.21 853 25.19 28.5 83.4 21 4.1 39.5
13:20 1023 30.21 853 25.19 27.8 82 21 3.9 38.9
13:25 1023 30.21 853 25.19 28.9 84.1 21 4.8 40.6
13:30 1023 30.21 852 25.16 29.3 84.7 20 4.2 39.6
13:35 1023 30.21 852 25.16 29.3 84.8 19 3.7 38.7
13:40 1023 30.21 852 25.16 29.5 85 18 3 37.4
13:45 1023 30.21 852 25.16 29.6 85.3 17 2.6 36.6
13:50 1023 30.21 852 25.16 29.4 84.9 16 1.1 33.9
13:55 1023 30.21 852 25.16 29.8 85.6 16 1.4 34.6
14:00 1023 30.21 852 25.16 30.2 86.3 15 1.2 34.1
14:05 1023 30.21 852 25.16 29.4 84.9 18 3 37.3
14:10 1023 30.21 852 25.16 29.7 85.4 18 2.9 37.2
14:15 1023 30.21 852 25.16 29.2 84.6 19 3.7 38.7
14:20 1023 30.21 852 25.16 29.4 85 17 1.9 35.4
14:25 1023 30.21 852 25.16 28.8 83.8 20 3.8 38.8
14:30 1023 30.21 852 25.16 29.4 84.9 20 4.1 39.4
14:35 1023 30.21 852 25.16 29.9 85.7 18 3.3 37.9
14:40 1023 30.21 852 25.16 30 85.9 17 2.9 37.2
14:45 1022 30.18 852 25.16 30.3 86.5 15 0.8 33.5
14:50 1022 30.18 852 25.16 30.1 86.3 15 0.7 33.3
14:55 1022 30.18 852 25.16 30.5 86.9 15 1.5 34.7
15:00 1022 30.18 852 25.16 31.3 88.3 14 0.9 33.6
15:05 1022 30.18 852 25.16 31.5 88.7 13 0.2 32.4
15:10 1022 30.18 851 25.13 30.4 86.8 13 -0.3 31.5
15:15 1022 30.18 851 25.13 30.6 87 14 0.4 32.8
15:20 1022 30.18 851 25.13 31.1 87.9 13 -0.7 30.7
15:25 1022 30.18 851 25.13 30 85.9 15 0.4 32.8
15:30 1022 30.18 851 25.13 30.2 86.3 14 0.3 32.6
15:35 1022 30.18 851 25.13 30.2 86.3 15 0.7 33.2
15:40 1022 30.18 851 25.13 30 86.1 14 0 32
15:45 1022 30.18 851 25.13 30 86 14 0.2 32.4
15:50 1022 30.18 851 25.13 30.5 86.8 14 0.4 32.7
15:55 1022 30.18 851 25.13 30.8 87.5 14 1 33.9
16:00 1022 30.18 851 25.13 31.4 88.5 13 0.1 32.2
16:05 1022 30.18 851 25.13 30.8 87.4 13 -0.8 30.5
16:10 1022 30.18 851 25.13 30.1 86.2 13 -1 30.2
16:15 1022 30.18 851 25.13 29.7 85.4 13 -1.7 29
16:20 1022 30.18 851 25.13 30.6 87 13 -0.9 30.4
16:25 1022 30.18 851 25.13 31 87.9 13 -0.3 31.5
16:30 1021 30.15 851 25.13 30.3 86.5 14 -0.2 31.6
16:35 1021 30.15 851 25.13 30.8 87.4 14 0.2 32.4
16:40 1021 30.15 851 25.13 30.9 87.7 13 -0.1 31.9
16:45 1021 30.15 850 25.1 30.3 86.6 14 -0.2 31.7
16:50 1021 30.15 850 25.1 30.5 86.8 14 -0 32
16:55 1021 30.15 850 25.1 30.6 87.1 14 0.5 32.9
17:00 1021 30.15 850 25.1 30.5 86.8 14 -0.1 31.8
17:05 1021 30.15 850 25.1 30.4 86.7 14 0.1 32.1
17:10 1021 30.15 850 25.1 30.6 87.1 14 -0 32
17:15 1021 30.15 850 25.1 30.9 87.6 14 0.3 32.5
17:20 1021 30.15 850 25.1 30.8 87.4 15 1.1 34.1
17:25 1021 30.15 850 25.1 30.8 87.4 14 0.8 33.4
17:30 1021 30.15 850 25.1 30.2 86.3 14 0.2 32.3
17:35 1021 30.15 850 25.1 29.6 85.2 15 0.6 33
17:40 1021 30.15 850 25.1 29.6 85.4 14 0.1 32.1
17:45 1021 30.15 850 25.1 29.7 85.5 15 0.6 33
17:50 1021 30.15 850 25.1 30.1 86.1 15 0.8 33.5
17:55 1021 30.15 850 25.1 29.5 85.1 15 0.1 32.1
18:00 1021 30.15 850 25.1 29.5 85 15 0.8 33.5
18:05 1021 30.15 850 25.1 29.7 85.4 15 0.6 33
18:10 1021 30.15 850 25.1 29.6 85.3 15 0.8 33.4
18:15 1021 30.15 850 25.1 29.7 85.5 15 1 33.9
18:20 1021 30.15 850 25.1 30.1 86.1 15 0.8 33.5
18:25 1021 30.15 850 25.1 30.2 86.4 15 1.1 33.9
18:30 1021 30.15 850 25.1 29.9 85.9 15 1.2 34.1
18:35 1021 30.15 850 25.1 29.3 84.7 15 0.6 33.1
18:40 1021 30.15 850 25.1 29.2 84.5 16 0.7 33.3
18:45 1021 30.15 850 25.1 29 84.2 16 0.8 33.4
18:50 1021 30.15 850 25.1 28.8 83.8 15 -0.1 31.9
18:55 1021 30.15 850 25.1 28.7 83.7 15 -0.3 31.4
19:00 1021 30.15 850 25.1 28.8 83.8 15 0.1 32.2
19:05 1021 30.15 850 25.1 28.8 83.8 15 0.2 32.3
19:10 1021 30.15 850 25.1 28.6 83.5 17 1.8 35.3
19:15 1021 30.15 850 25.1 28.5 83.2 17 1.3 34.3
19:20 1021 30.15 850 25.1 28.4 83.2 18 2.3 36.1
19:25 1021 30.15 850 25.1 28.4 83.1 18 1.9 35.4
19:30 1021 30.15 850 25.1 28.2 82.8 20 3.3 38
19:35 1021 30.15 850 25.1 28.1 82.6 20 3.1 37.6
19:40 1021 30.15 850 25.1 28 82.4 19 2.9 37.2
19:45 1021 30.15 850 25.1 27.9 82.1 21 4.1 39.4
19:50 1021 30.15 850 25.1 27.6 81.7 23 5.2 41.4
19:55 1021 30.15 850 25.1 27.3 81.2 23 4.6 40.3
20:00 1021 30.15 850 25.1 26.9 80.5 26 6.2 43.1
20:05 1021 30.15 850 25.1 26 78.9 25 5 41
20:10 1021 30.15 850 25.1 25.8 78.4 26 4.9 40.8
20:15 1021 30.15 850 25.1 25.5 78 26 4.8 40.6
20:20 1021 30.15 851 25.13 25.4 77.7 27 5.1 41.2
20:25 1021 30.15 851 25.13 25 77 28 5.4 41.6
20:30 1021 30.15 851 25.13 24.5 76.2 30 5.8 42.5
20:35 1021 30.15 851 25.13 24 75.2 31 6 42.8
20:40 1021 30.15 851 25.13 23.5 74.3 34 7 44.6
20:45 1021 30.15 851 25.13 23.1 73.7 36 7.5 45.6
20:50 1022 30.18 851 25.13 23.1 73.5 33 6.1 42.9
20:55 1022 30.18 851 25.13 23 73.4 33 6.1 43
21:00 1022 30.18 851 25.13 22.8 73 35 6.6 43.9
21:05 1022 30.18 851 25.13 22.5 72.5 35 6.4 43.4
21:10 1022 30.18 851 25.13 22.2 71.9 34 6 42.7
21:15 1022 30.18 851 25.13 21.6 70.9 38 6.8 44.3
21:20 1022 30.18 851 25.13 21.1 69.9 35 5.2 41.3
21:25 1022 30.18 851 25.13 21.9 71.4 31 4.3 39.7
21:30 1022 30.18 851 25.13 22.4 72.4 30 4.3 39.7
21:35 1022 30.18 851 25.13 22.7 72.8 29 4.2 39.5
21:40 1022 30.18 851 25.13 23 73.3 28 3.7 38.6
21:45 1022 30.18 851 25.13 22.9 73.2 29 4.3 39.7
21:50 1022 30.18 851 25.13 22.6 72.7 29 3.9 39
21:55 1022 30.18 851 25.13 22.6 72.7 28 3.6 38.5
22:00 1022 30.18 851 25.13 22.9 73.3 28 3.6 38.6
22:05 1022 30.18 851 25.13 23 73.4 28 3.9 39.1
22:10 1022 30.18 851 25.13 22.8 73.1 29 3.9 39.1
22:15 1022 30.18 851 25.13 22.7 72.8 29 3.9 39.1
22:20 1022 30.18 851 25.13 22.8 73 29 4.2 39.5
22:25 1022 30.18 851 25.13 22.6 72.7 29 4 39.2
22:30 1022 30.18 851 25.13 22.7 72.8 29 4.1 39.3
22:35 1022 30.18 851 25.13 22.6 72.7 29 4 39.2
22:40 1022 30.18 851 25.13 22.7 72.8 29 4.1 39.4
22:45 1022 30.18 851 25.13 22.6 72.8 29 3.9 39.1
22:50 1022 30.18 851 25.13 22.8 73 29 3.9 39
22:55 1022 30.18 851 25.13 22.9 73.2 29 4 39.2
23:00 1022 30.18 851 25.13 22.7 72.9 29 4 39.2
23:05 1022 30.18 851 25.13 22.6 72.7 29 3.9 39
23:10 1022 30.18 851 25.13 22.6 72.8 29 3.9 39.1
23:15 1022 30.18 851 25.13 22.5 72.5 30 4.2 39.5
23:20 1022 30.18 851 25.13 22.5 72.4 29 3.9 39
23:25 1022 30.18 851 25.13 22.4 72.3 30 4 39.2
23:30 1022 30.18 851 25.13 22.4 72.2 30 4 39.2
23:35 1022 30.18 851 25.13 22.4 72.2 30 4.1 39.3
23:40 1022 30.18 851 25.13 22.3 72.1 30 4.2 39.5
23:45 1022 30.18 851 25.13 22.3 72.1 30 4.1 39.5
23:50 1022 30.18 851 25.13 22.2 72 30 4.2 39.6
23:55 1022 30.18 851 25.13 22.2 71.9 31 4.3 39.8
24:00 1022 30.18 851 25.13 22.1 71.8 31 4.2 39.6